sensor_id;sensor_type;location;lat;lon;timestamp;P1;durP1;ratioP1;P2;durP2;ratioP2
38053;SDS011;23859;50.672;7.164;2023-01-25T00:02:24;24.33;;;14.30;;
38053;SDS011;23859;50.672;7.164;2023-01-25T00:04:51;22.40;;;13.43;;
38053;SDS011;23859;50.672;7.164;2023-01-25T00:07:17;24.33;;;13.57;;
38053;SDS011;23859;50.672;7.164;2023-01-25T00:09:43;25.70;;;14.48;;
38053;SDS011;23859;50.672;7.164;2023-01-25T00:12:09;29.13;;;14.07;;
38053;SDS011;23859;50.672;7.164;2023-01-25T00:14:35;28.00;;;14.75;;
38053;SDS011;23859;50.672;7.164;2023-01-25T00:17:01;25.48;;;14.27;;
38053;SDS011;23859;50.672;7.164;2023-01-25T00:19:27;23.63;;;14.32;;
38053;SDS011;23859;50.672;7.164;2023-01-25T00:21:53;27.75;;;15.73;;
38053;SDS011;23859;50.672;7.164;2023-01-25T00:24:19;29.10;;;16.50;;
38053;SDS011;23859;50.672;7.164;2023-01-25T00:26:47;26.40;;;14.43;;
38053;SDS011;23859;50.672;7.164;2023-01-25T00:29:13;24.63;;;13.52;;
38053;SDS011;23859;50.672;7.164;2023-01-25T00:31:40;26.90;;;14.80;;
38053;SDS011;23859;50.672;7.164;2023-01-25T00:39:21;22.85;;;14.32;;
38053;SDS011;23859;50.672;7.164;2023-01-25T00:41:49;27.45;;;14.98;;
38053;SDS011;23859;50.672;7.164;2023-01-25T00:44:15;28.02;;;15.85;;
38053;SDS011;23859;50.672;7.164;2023-01-25T00:46:41;28.30;;;16.45;;
38053;SDS011;23859;50.672;7.164;2023-01-25T00:49:19;29.95;;;16.77;;
38053;SDS011;23859;50.672;7.164;2023-01-25T00:51:48;26.10;;;14.52;;
38053;SDS011;23859;50.672;7.164;2023-01-25T00:54:14;26.40;;;15.30;;
38053;SDS011;23859;50.672;7.164;2023-01-25T00:56:41;26.98;;;15.60;;
38053;SDS011;23859;50.672;7.164;2023-01-25T00:59:08;26.17;;;15.00;;
38053;SDS011;23859;50.672;7.164;2023-01-25T01:01:34;23.45;;;14.20;;
38053;SDS011;23859;50.672;7.164;2023-01-25T01:04:00;25.77;;;14.95;;
38053;SDS011;23859;50.672;7.164;2023-01-25T01:06:26;28.95;;;16.45;;
38053;SDS011;23859;50.672;7.164;2023-01-25T01:08:52;28.95;;;16.48;;
38053;SDS011;23859;50.672;7.164;2023-01-25T01:11:18;27.85;;;15.98;;
38053;SDS011;23859;50.672;7.164;2023-01-25T01:13:44;27.88;;;16.42;;
38053;SDS011;23859;50.672;7.164;2023-01-25T01:16:11;28.23;;;14.18;;
38053;SDS011;23859;50.672;7.164;2023-01-25T01:18:39;27.63;;;15.38;;
38053;SDS011;23859;50.672;7.164;2023-01-25T01:21:07;26.92;;;15.43;;
38053;SDS011;23859;50.672;7.164;2023-01-25T01:23:34;29.05;;;15.57;;
38053;SDS011;23859;50.672;7.164;2023-01-25T01:26:01;28.70;;;15.60;;
38053;SDS011;23859;50.672;7.164;2023-01-25T01:28:28;28.05;;;15.18;;
38053;SDS011;23859;50.672;7.164;2023-01-25T01:30:59;27.77;;;15.63;;
38053;SDS011;23859;50.672;7.164;2023-01-25T01:33:26;30.13;;;16.13;;
38053;SDS011;23859;50.672;7.164;2023-01-25T01:35:52;25.92;;;14.75;;
38053;SDS011;23859;50.672;7.164;2023-01-25T01:38:18;28.98;;;14.73;;
38053;SDS011;23859;50.672;7.164;2023-01-25T01:40:45;29.83;;;16.52;;
38053;SDS011;23859;50.672;7.164;2023-01-25T01:43:16;30.10;;;16.52;;
38053;SDS011;23859;50.672;7.164;2023-01-25T01:48:16;25.50;;;15.63;;
38053;SDS011;23859;50.672;7.164;2023-01-25T01:53:47;27.48;;;16.65;;
38053;SDS011;23859;50.672;7.164;2023-01-25T01:56:25;25.33;;;14.93;;
38053;SDS011;23859;50.672;7.164;2023-01-25T01:59:13;25.13;;;14.50;;
38053;SDS011;23859;50.672;7.164;2023-01-25T02:01:40;27.10;;;15.00;;
38053;SDS011;23859;50.672;7.164;2023-01-25T02:04:07;28.10;;;16.05;;
38053;SDS011;23859;50.672;7.164;2023-01-25T02:06:50;29.35;;;17.50;;
38053;SDS011;23859;50.672;7.164;2023-01-25T02:09:24;29.45;;;16.80;;
38053;SDS011;23859;50.672;7.164;2023-01-25T02:11:53;30.60;;;17.45;;
38053;SDS011;23859;50.672;7.164;2023-01-25T02:14:22;28.52;;;16.73;;
38053;SDS011;23859;50.672;7.164;2023-01-25T02:16:49;27.73;;;16.13;;
38053;SDS011;23859;50.672;7.164;2023-01-25T02:19:18;27.60;;;15.05;;
38053;SDS011;23859;50.672;7.164;2023-01-25T02:22:01;31.58;;;16.60;;
38053;SDS011;23859;50.672;7.164;2023-01-25T02:24:31;28.10;;;16.15;;
38053;SDS011;23859;50.672;7.164;2023-01-25T02:26:59;34.03;;;17.25;;
38053;SDS011;23859;50.672;7.164;2023-01-25T02:29:25;31.33;;;16.48;;
38053;SDS011;23859;50.672;7.164;2023-01-25T02:32:01;24.92;;;14.65;;
38053;SDS011;23859;50.672;7.164;2023-01-25T02:34:29;30.58;;;16.52;;
38053;SDS011;23859;50.672;7.164;2023-01-25T02:36:55;29.33;;;15.98;;
38053;SDS011;23859;50.672;7.164;2023-01-25T02:39:22;27.77;;;15.90;;
38053;SDS011;23859;50.672;7.164;2023-01-25T02:41:50;23.58;;;14.55;;
38053;SDS011;23859;50.672;7.164;2023-01-25T02:44:24;26.25;;;14.88;;
38053;SDS011;23859;50.672;7.164;2023-01-25T02:46:52;27.25;;;15.73;;
38053;SDS011;23859;50.672;7.164;2023-01-25T02:49:19;31.75;;;15.88;;
38053;SDS011;23859;50.672;7.164;2023-01-25T02:51:46;28.92;;;16.33;;
38053;SDS011;23859;50.672;7.164;2023-01-25T02:54:17;30.25;;;15.57;;
38053;SDS011;23859;50.672;7.164;2023-01-25T02:56:44;30.83;;;16.67;;
38053;SDS011;23859;50.672;7.164;2023-01-25T02:59:10;28.67;;;16.52;;
38053;SDS011;23859;50.672;7.164;2023-01-25T03:01:38;27.85;;;15.85;;
38053;SDS011;23859;50.672;7.164;2023-01-25T03:04:05;35.75;;;17.55;;
38053;SDS011;23859;50.672;7.164;2023-01-25T03:06:32;26.63;;;15.93;;
38053;SDS011;23859;50.672;7.164;2023-01-25T03:08:59;29.95;;;16.35;;
38053;SDS011;23859;50.672;7.164;2023-01-25T03:11:25;29.42;;;16.13;;
38053;SDS011;23859;50.672;7.164;2023-01-25T03:13:51;33.42;;;17.70;;
38053;SDS011;23859;50.672;7.164;2023-01-25T03:16:18;29.60;;;15.93;;
38053;SDS011;23859;50.672;7.164;2023-01-25T03:18:44;29.45;;;16.77;;
38053;SDS011;23859;50.672;7.164;2023-01-25T03:21:11;31.30;;;15.65;;
38053;SDS011;23859;50.672;7.164;2023-01-25T03:23:38;24.23;;;13.95;;
38053;SDS011;23859;50.672;7.164;2023-01-25T03:28:42;25.45;;;13.98;;
38053;SDS011;23859;50.672;7.164;2023-01-25T03:31:09;25.48;;;14.85;;
38053;SDS011;23859;50.672;7.164;2023-01-25T03:33:37;28.60;;;16.95;;
38053;SDS011;23859;50.672;7.164;2023-01-25T03:36:04;29.42;;;17.30;;
38053;SDS011;23859;50.672;7.164;2023-01-25T03:38:31;32.00;;;17.55;;
38053;SDS011;23859;50.672;7.164;2023-01-25T03:40:58;26.58;;;15.10;;
38053;SDS011;23859;50.672;7.164;2023-01-25T03:43:24;29.83;;;15.55;;
38053;SDS011;23859;50.672;7.164;2023-01-25T03:45:51;26.20;;;14.85;;
38053;SDS011;23859;50.672;7.164;2023-01-25T03:48:22;28.25;;;14.85;;
38053;SDS011;23859;50.672;7.164;2023-01-25T03:50:50;28.83;;;14.85;;
38053;SDS011;23859;50.672;7.164;2023-01-25T03:53:17;28.75;;;15.45;;
38053;SDS011;23859;50.672;7.164;2023-01-25T03:55:53;26.48;;;14.40;;
38053;SDS011;23859;50.672;7.164;2023-01-25T03:58:21;26.60;;;14.63;;
38053;SDS011;23859;50.672;7.164;2023-01-25T04:00:47;28.55;;;15.27;;
38053;SDS011;23859;50.672;7.164;2023-01-25T04:03:13;35.72;;;17.17;;
38053;SDS011;23859;50.672;7.164;2023-01-25T04:05:40;25.63;;;14.38;;
38053;SDS011;23859;50.672;7.164;2023-01-25T04:08:06;23.98;;;13.80;;
38053;SDS011;23859;50.672;7.164;2023-01-25T04:10:32;25.27;;;15.13;;
38053;SDS011;23859;50.672;7.164;2023-01-25T04:12:58;25.20;;;15.68;;
38053;SDS011;23859;50.672;7.164;2023-01-25T04:15:24;26.27;;;14.45;;
38053;SDS011;23859;50.672;7.164;2023-01-25T04:17:51;29.80;;;16.17;;
38053;SDS011;23859;50.672;7.164;2023-01-25T04:20:17;27.92;;;13.90;;
38053;SDS011;23859;50.672;7.164;2023-01-25T04:22:43;27.27;;;15.82;;
38053;SDS011;23859;50.672;7.164;2023-01-25T04:25:09;24.77;;;13.82;;
38053;SDS011;23859;50.672;7.164;2023-01-25T04:27:35;24.00;;;13.40;;
38053;SDS011;23859;50.672;7.164;2023-01-25T04:30:01;23.92;;;13.18;;
38053;SDS011;23859;50.672;7.164;2023-01-25T04:32:28;25.38;;;14.65;;
38053;SDS011;23859;50.672;7.164;2023-01-25T04:34:54;25.73;;;14.63;;
38053;SDS011;23859;50.672;7.164;2023-01-25T04:37:20;25.15;;;13.55;;
38053;SDS011;23859;50.672;7.164;2023-01-25T04:39:46;23.17;;;13.82;;
38053;SDS011;23859;50.672;7.164;2023-01-25T04:42:12;25.52;;;14.27;;
38053;SDS011;23859;50.672;7.164;2023-01-25T04:44:38;28.08;;;15.05;;
38053;SDS011;23859;50.672;7.164;2023-01-25T04:47:04;26.33;;;15.93;;
38053;SDS011;23859;50.672;7.164;2023-01-25T04:49:30;25.58;;;14.35;;
38053;SDS011;23859;50.672;7.164;2023-01-25T04:51:56;24.38;;;12.93;;
38053;SDS011;23859;50.672;7.164;2023-01-25T04:54:22;23.88;;;13.07;;
38053;SDS011;23859;50.672;7.164;2023-01-25T04:56:48;28.30;;;15.15;;
38053;SDS011;23859;50.672;7.164;2023-01-25T04:59:14;26.48;;;13.35;;
38053;SDS011;23859;50.672;7.164;2023-01-25T05:01:40;26.80;;;14.57;;
38053;SDS011;23859;50.672;7.164;2023-01-25T05:04:06;24.63;;;13.88;;
38053;SDS011;23859;50.672;7.164;2023-01-25T05:06:32;30.30;;;14.82;;
38053;SDS011;23859;50.672;7.164;2023-01-25T05:08:58;25.98;;;13.40;;
38053;SDS011;23859;50.672;7.164;2023-01-25T05:11:24;27.25;;;15.55;;
38053;SDS011;23859;50.672;7.164;2023-01-25T05:13:50;24.02;;;13.27;;
38053;SDS011;23859;50.672;7.164;2023-01-25T05:16:18;27.25;;;15.45;;
38053;SDS011;23859;50.672;7.164;2023-01-25T05:18:44;30.05;;;16.27;;
38053;SDS011;23859;50.672;7.164;2023-01-25T05:21:10;28.13;;;15.27;;
38053;SDS011;23859;50.672;7.164;2023-01-25T05:23:56;25.55;;;14.15;;
38053;SDS011;23859;50.672;7.164;2023-01-25T05:26:22;27.88;;;14.98;;
38053;SDS011;23859;50.672;7.164;2023-01-25T05:29:08;25.83;;;14.40;;
38053;SDS011;23859;50.672;7.164;2023-01-25T05:31:34;28.52;;;15.38;;
38053;SDS011;23859;50.672;7.164;2023-01-25T05:34:00;28.23;;;16.13;;
38053;SDS011;23859;50.672;7.164;2023-01-25T05:36:26;29.80;;;15.98;;
38053;SDS011;23859;50.672;7.164;2023-01-25T05:38:52;31.45;;;15.85;;
38053;SDS011;23859;50.672;7.164;2023-01-25T05:41:18;32.42;;;17.42;;
38053;SDS011;23859;50.672;7.164;2023-01-25T05:43:47;28.48;;;14.90;;
38053;SDS011;23859;50.672;7.164;2023-01-25T05:46:13;29.25;;;16.23;;
38053;SDS011;23859;50.672;7.164;2023-01-25T05:48:40;29.08;;;16.75;;
38053;SDS011;23859;50.672;7.164;2023-01-25T05:51:06;29.05;;;16.50;;
38053;SDS011;23859;50.672;7.164;2023-01-25T05:53:32;27.48;;;14.13;;
38053;SDS011;23859;50.672;7.164;2023-01-25T05:56:07;28.48;;;15.90;;
38053;SDS011;23859;50.672;7.164;2023-01-25T05:58:37;27.80;;;15.43;;
38053;SDS011;23859;50.672;7.164;2023-01-25T06:01:03;28.00;;;15.93;;
38053;SDS011;23859;50.672;7.164;2023-01-25T06:03:31;32.65;;;15.55;;
38053;SDS011;23859;50.672;7.164;2023-01-25T06:05:59;33.67;;;18.15;;
38053;SDS011;23859;50.672;7.164;2023-01-25T06:08:27;29.92;;;15.57;;
38053;SDS011;23859;50.672;7.164;2023-01-25T06:10:54;29.67;;;16.67;;
38053;SDS011;23859;50.672;7.164;2023-01-25T06:13:20;29.70;;;15.63;;
38053;SDS011;23859;50.672;7.164;2023-01-25T06:15:56;32.00;;;16.20;;
38053;SDS011;23859;50.672;7.164;2023-01-25T06:18:22;31.95;;;17.27;;
38053;SDS011;23859;50.672;7.164;2023-01-25T06:20:48;34.17;;;19.08;;
38053;SDS011;23859;50.672;7.164;2023-01-25T06:23:14;36.65;;;18.77;;
38053;SDS011;23859;50.672;7.164;2023-01-25T06:25:41;33.28;;;18.02;;
38053;SDS011;23859;50.672;7.164;2023-01-25T06:28:07;33.60;;;16.83;;
38053;SDS011;23859;50.672;7.164;2023-01-25T06:30:33;33.05;;;16.63;;
38053;SDS011;23859;50.672;7.164;2023-01-25T06:33:00;30.75;;;15.52;;
38053;SDS011;23859;50.672;7.164;2023-01-25T06:35:26;24.95;;;14.38;;
38053;SDS011;23859;50.672;7.164;2023-01-25T06:37:55;35.78;;;17.65;;
38053;SDS011;23859;50.672;7.164;2023-01-25T06:40:22;37.03;;;19.40;;
38053;SDS011;23859;50.672;7.164;2023-01-25T06:42:48;34.70;;;18.17;;
38053;SDS011;23859;50.672;7.164;2023-01-25T06:45:14;28.48;;;15.40;;
38053;SDS011;23859;50.672;7.164;2023-01-25T06:47:41;27.30;;;14.77;;
38053;SDS011;23859;50.672;7.164;2023-01-25T06:50:07;28.65;;;16.88;;
38053;SDS011;23859;50.672;7.164;2023-01-25T06:52:34;32.15;;;16.90;;
38053;SDS011;23859;50.672;7.164;2023-01-25T06:55:01;31.10;;;17.55;;
38053;SDS011;23859;50.672;7.164;2023-01-25T06:57:28;34.35;;;17.58;;
38053;SDS011;23859;50.672;7.164;2023-01-25T06:59:54;31.60;;;16.27;;
38053;SDS011;23859;50.672;7.164;2023-01-25T07:02:20;27.67;;;16.15;;
38053;SDS011;23859;50.672;7.164;2023-01-25T07:04:46;35.60;;;17.58;;
38053;SDS011;23859;50.672;7.164;2023-01-25T07:07:12;34.22;;;19.08;;
38053;SDS011;23859;50.672;7.164;2023-01-25T07:09:39;34.47;;;18.75;;
38053;SDS011;23859;50.672;7.164;2023-01-25T07:12:05;33.50;;;17.67;;
38053;SDS011;23859;50.672;7.164;2023-01-25T07:14:31;34.40;;;18.10;;
38053;SDS011;23859;50.672;7.164;2023-01-25T07:16:57;34.35;;;19.30;;
38053;SDS011;23859;50.672;7.164;2023-01-25T07:19:24;36.83;;;18.55;;
38053;SDS011;23859;50.672;7.164;2023-01-25T07:21:50;29.17;;;15.48;;
38053;SDS011;23859;50.672;7.164;2023-01-25T07:24:17;38.63;;;18.02;;
38053;SDS011;23859;50.672;7.164;2023-01-25T07:26:44;31.27;;;17.20;;
38053;SDS011;23859;50.672;7.164;2023-01-25T07:29:12;32.08;;;17.15;;
38053;SDS011;23859;50.672;7.164;2023-01-25T07:31:39;38.22;;;19.88;;
38053;SDS011;23859;50.672;7.164;2023-01-25T07:34:07;34.58;;;18.30;;
38053;SDS011;23859;50.672;7.164;2023-01-25T07:36:37;41.28;;;19.60;;
38053;SDS011;23859;50.672;7.164;2023-01-25T07:39:04;38.65;;;18.92;;
38053;SDS011;23859;50.672;7.164;2023-01-25T07:41:30;37.35;;;20.20;;
38053;SDS011;23859;50.672;7.164;2023-01-25T07:43:57;40.88;;;21.00;;
38053;SDS011;23859;50.672;7.164;2023-01-25T07:46:23;35.45;;;18.90;;
38053;SDS011;23859;50.672;7.164;2023-01-25T07:48:50;33.60;;;18.38;;
38053;SDS011;23859;50.672;7.164;2023-01-25T07:51:17;37.95;;;18.58;;
38053;SDS011;23859;50.672;7.164;2023-01-25T07:53:57;35.45;;;19.05;;
38053;SDS011;23859;50.672;7.164;2023-01-25T07:56:29;36.10;;;18.58;;
38053;SDS011;23859;50.672;7.164;2023-01-25T07:58:57;33.70;;;17.33;;
38053;SDS011;23859;50.672;7.164;2023-01-25T08:01:27;39.50;;;20.92;;
38053;SDS011;23859;50.672;7.164;2023-01-25T08:03:56;36.17;;;19.20;;
38053;SDS011;23859;50.672;7.164;2023-01-25T08:06:23;33.00;;;16.83;;
38053;SDS011;23859;50.672;7.164;2023-01-25T08:08:55;33.33;;;17.60;;
38053;SDS011;23859;50.672;7.164;2023-01-25T08:11:23;34.05;;;17.55;;
38053;SDS011;23859;50.672;7.164;2023-01-25T08:13:51;36.03;;;19.42;;
38053;SDS011;23859;50.672;7.164;2023-01-25T08:16:18;39.45;;;21.17;;
38053;SDS011;23859;50.672;7.164;2023-01-25T08:18:47;38.40;;;20.10;;
38053;SDS011;23859;50.672;7.164;2023-01-25T08:21:13;40.97;;;20.20;;
38053;SDS011;23859;50.672;7.164;2023-01-25T08:23:40;40.47;;;20.48;;
38053;SDS011;23859;50.672;7.164;2023-01-25T08:26:11;40.78;;;21.35;;
38053;SDS011;23859;50.672;7.164;2023-01-25T08:28:38;42.22;;;21.42;;
38053;SDS011;23859;50.672;7.164;2023-01-25T08:33:35;44.65;;;20.48;;
38053;SDS011;23859;50.672;7.164;2023-01-25T08:36:02;41.38;;;19.27;;
38053;SDS011;23859;50.672;7.164;2023-01-25T08:38:29;41.95;;;19.40;;
38053;SDS011;23859;50.672;7.164;2023-01-25T08:41:02;37.50;;;19.42;;
38053;SDS011;23859;50.672;7.164;2023-01-25T08:43:33;36.33;;;19.48;;
38053;SDS011;23859;50.672;7.164;2023-01-25T08:45:59;31.45;;;17.02;;
38053;SDS011;23859;50.672;7.164;2023-01-25T08:48:25;31.58;;;17.75;;
38053;SDS011;23859;50.672;7.164;2023-01-25T08:50:52;36.47;;;17.85;;
38053;SDS011;23859;50.672;7.164;2023-01-25T08:53:18;31.60;;;17.50;;
38053;SDS011;23859;50.672;7.164;2023-01-25T08:55:44;35.50;;;17.65;;
38053;SDS011;23859;50.672;7.164;2023-01-25T08:58:11;36.28;;;19.35;;
38053;SDS011;23859;50.672;7.164;2023-01-25T09:00:38;35.35;;;19.25;;
38053;SDS011;23859;50.672;7.164;2023-01-25T09:03:08;35.95;;;20.15;;
38053;SDS011;23859;50.672;7.164;2023-01-25T09:05:36;39.30;;;19.80;;
38053;SDS011;23859;50.672;7.164;2023-01-25T09:08:03;34.22;;;17.90;;
38053;SDS011;23859;50.672;7.164;2023-01-25T09:10:31;36.50;;;18.45;;
38053;SDS011;23859;50.672;7.164;2023-01-25T09:12:58;38.30;;;18.15;;
38053;SDS011;23859;50.672;7.164;2023-01-25T09:15:24;37.22;;;18.20;;
38053;SDS011;23859;50.672;7.164;2023-01-25T09:17:51;34.28;;;17.40;;
38053;SDS011;23859;50.672;7.164;2023-01-25T09:20:18;34.67;;;18.77;;
38053;SDS011;23859;50.672;7.164;2023-01-25T09:22:45;29.65;;;16.25;;
38053;SDS011;23859;50.672;7.164;2023-01-25T09:25:11;32.63;;;17.05;;
38053;SDS011;23859;50.672;7.164;2023-01-25T09:27:38;34.72;;;16.27;;
38053;SDS011;23859;50.672;7.164;2023-01-25T09:30:05;30.58;;;16.40;;
38053;SDS011;23859;50.672;7.164;2023-01-25T09:32:33;36.30;;;18.35;;
38053;SDS011;23859;50.672;7.164;2023-01-25T09:34:59;29.30;;;15.40;;
38053;SDS011;23859;50.672;7.164;2023-01-25T09:37:25;32.30;;;15.77;;
38053;SDS011;23859;50.672;7.164;2023-01-25T09:39:51;32.90;;;17.27;;
38053;SDS011;23859;50.672;7.164;2023-01-25T09:53:54;36.17;;;18.73;;
38053;SDS011;23859;50.672;7.164;2023-01-25T09:56:22;36.88;;;19.33;;
38053;SDS011;23859;50.672;7.164;2023-01-25T09:58:51;35.63;;;18.85;;
38053;SDS011;23859;50.672;7.164;2023-01-25T10:01:29;42.78;;;20.33;;
38053;SDS011;23859;50.672;7.164;2023-01-25T10:04:36;41.88;;;19.25;;
38053;SDS011;23859;50.672;7.164;2023-01-25T10:07:11;44.55;;;21.00;;
38053;SDS011;23859;50.672;7.164;2023-01-25T10:10:02;38.55;;;21.17;;
38053;SDS011;23859;50.672;7.164;2023-01-25T10:12:34;43.75;;;20.77;;
38053;SDS011;23859;50.672;7.164;2023-01-25T10:15:07;43.22;;;21.23;;
38053;SDS011;23859;50.672;7.164;2023-01-25T10:17:47;38.88;;;21.50;;
38053;SDS011;23859;50.672;7.164;2023-01-25T10:20:30;36.88;;;19.00;;
38053;SDS011;23859;50.672;7.164;2023-01-25T10:26:13;42.45;;;21.48;;
38053;SDS011;23859;50.672;7.164;2023-01-25T10:28:52;43.00;;;20.50;;
38053;SDS011;23859;50.672;7.164;2023-01-25T10:33:55;40.05;;;20.67;;
38053;SDS011;23859;50.672;7.164;2023-01-25T10:36:26;43.30;;;21.33;;
38053;SDS011;23859;50.672;7.164;2023-01-25T10:38:54;43.67;;;22.80;;
38053;SDS011;23859;50.672;7.164;2023-01-25T10:41:26;43.80;;;20.40;;
38053;SDS011;23859;50.672;7.164;2023-01-25T10:44:04;42.47;;;20.52;;
38053;SDS011;23859;50.672;7.164;2023-01-25T10:47:34;41.30;;;20.83;;
38053;SDS011;23859;50.672;7.164;2023-01-25T10:49:54;44.60;;;20.85;;
38053;SDS011;23859;50.672;7.164;2023-01-25T10:52:23;40.30;;;19.48;;
38053;SDS011;23859;50.672;7.164;2023-01-25T10:57:43;49.35;;;21.98;;
38053;SDS011;23859;50.672;7.164;2023-01-25T11:00:19;49.20;;;22.17;;
38053;SDS011;23859;50.672;7.164;2023-01-25T11:02:58;42.45;;;20.45;;
38053;SDS011;23859;50.672;7.164;2023-01-25T11:05:25;43.63;;;20.05;;
38053;SDS011;23859;50.672;7.164;2023-01-25T11:08:19;42.30;;;20.83;;
38053;SDS011;23859;50.672;7.164;2023-01-25T11:10:56;40.45;;;19.45;;
38053;SDS011;23859;50.672;7.164;2023-01-25T11:13:24;39.00;;;18.50;;
38053;SDS011;23859;50.672;7.164;2023-01-25T11:16:14;39.55;;;19.17;;
38053;SDS011;23859;50.672;7.164;2023-01-25T11:18:59;43.55;;;20.10;;
38053;SDS011;23859;50.672;7.164;2023-01-25T11:21:28;46.15;;;20.88;;
38053;SDS011;23859;50.672;7.164;2023-01-25T11:23:59;39.55;;;18.73;;
38053;SDS011;23859;50.672;7.164;2023-01-25T11:26:29;37.28;;;17.73;;
38053;SDS011;23859;50.672;7.164;2023-01-25T11:29:06;40.58;;;19.60;;
38053;SDS011;23859;50.672;7.164;2023-01-25T11:31:40;39.35;;;19.08;;
38053;SDS011;23859;50.672;7.164;2023-01-25T11:34:10;40.47;;;18.98;;
38053;SDS011;23859;50.672;7.164;2023-01-25T11:42:38;36.10;;;16.92;;
38053;SDS011;23859;50.672;7.164;2023-01-25T11:48:08;32.97;;;16.85;;
38053;SDS011;23859;50.672;7.164;2023-01-25T11:51:11;33.70;;;16.33;;
38053;SDS011;23859;50.672;7.164;2023-01-25T11:54:03;39.70;;;17.60;;
38053;SDS011;23859;50.672;7.164;2023-01-25T11:56:54;46.35;;;21.48;;
38053;SDS011;23859;50.672;7.164;2023-01-25T12:02:29;40.47;;;21.17;;
38053;SDS011;23859;50.672;7.164;2023-01-25T12:08:03;45.67;;;20.80;;
38053;SDS011;23859;50.672;7.164;2023-01-25T12:10:40;42.63;;;21.42;;
38053;SDS011;23859;50.672;7.164;2023-01-25T12:13:15;37.17;;;18.50;;
38053;SDS011;23859;50.672;7.164;2023-01-25T12:16:21;41.45;;;19.63;;
38053;SDS011;23859;50.672;7.164;2023-01-25T12:30:15;42.70;;;20.05;;
38053;SDS011;23859;50.672;7.164;2023-01-25T12:32:56;45.30;;;20.05;;
38053;SDS011;23859;50.672;7.164;2023-01-25T12:35:33;40.72;;;19.77;;
38053;SDS011;23859;50.672;7.164;2023-01-25T12:38:02;47.33;;;22.77;;
38053;SDS011;23859;50.672;7.164;2023-01-25T12:43:13;39.95;;;19.08;;
38053;SDS011;23859;50.672;7.164;2023-01-25T12:45:46;38.88;;;18.70;;
38053;SDS011;23859;50.672;7.164;2023-01-25T12:48:17;40.85;;;20.15;;
38053;SDS011;23859;50.672;7.164;2023-01-25T12:50:54;43.97;;;22.67;;
38053;SDS011;23859;50.672;7.164;2023-01-25T12:55:51;49.25;;;22.10;;
38053;SDS011;23859;50.672;7.164;2023-01-25T13:04:43;43.58;;;22.00;;
38053;SDS011;23859;50.672;7.164;2023-01-25T13:10:12;46.03;;;20.15;;
38053;SDS011;23859;50.672;7.164;2023-01-25T13:13:00;38.47;;;20.58;;
38053;SDS011;23859;50.672;7.164;2023-01-25T13:15:42;42.20;;;19.30;;
38053;SDS011;23859;50.672;7.164;2023-01-25T13:20:48;37.97;;;18.20;;
38053;SDS011;23859;50.672;7.164;2023-01-25T13:28:53;41.30;;;18.83;;
38053;SDS011;23859;50.672;7.164;2023-01-25T13:34:09;40.88;;;18.83;;
38053;SDS011;23859;50.672;7.164;2023-01-25T13:41:59;40.35;;;18.30;;
38053;SDS011;23859;50.672;7.164;2023-01-25T13:44:27;40.03;;;18.83;;
38053;SDS011;23859;50.672;7.164;2023-01-25T13:47:02;44.47;;;20.08;;
38053;SDS011;23859;50.672;7.164;2023-01-25T13:49:41;38.85;;;17.83;;
38053;SDS011;23859;50.672;7.164;2023-01-25T13:52:13;40.72;;;18.38;;
38053;SDS011;23859;50.672;7.164;2023-01-25T13:54:44;42.67;;;19.60;;
38053;SDS011;23859;50.672;7.164;2023-01-25T13:57:12;35.83;;;16.35;;
38053;SDS011;23859;50.672;7.164;2023-01-25T13:59:46;37.42;;;16.80;;
38053;SDS011;23859;50.672;7.164;2023-01-25T14:02:14;40.40;;;18.33;;
38053;SDS011;23859;50.672;7.164;2023-01-25T14:07:23;37.58;;;16.92;;
38053;SDS011;23859;50.672;7.164;2023-01-25T14:09:59;43.38;;;18.73;;
38053;SDS011;23859;50.672;7.164;2023-01-25T14:12:32;40.38;;;18.10;;
38053;SDS011;23859;50.672;7.164;2023-01-25T14:18:02;35.00;;;16.90;;
38053;SDS011;23859;50.672;7.164;2023-01-25T14:20:34;36.55;;;15.60;;
38053;SDS011;23859;50.672;7.164;2023-01-25T14:23:00;37.83;;;17.42;;
38053;SDS011;23859;50.672;7.164;2023-01-25T14:25:27;36.33;;;17.20;;
38053;SDS011;23859;50.672;7.164;2023-01-25T14:30:24;39.42;;;17.17;;
38053;SDS011;23859;50.672;7.164;2023-01-25T14:32:53;32.92;;;16.08;;
38053;SDS011;23859;50.672;7.164;2023-01-25T14:38:00;37.13;;;16.17;;
38053;SDS011;23859;50.672;7.164;2023-01-25T14:40:27;27.70;;;14.00;;
38053;SDS011;23859;50.672;7.164;2023-01-25T14:42:55;32.75;;;15.50;;
38053;SDS011;23859;50.672;7.164;2023-01-25T14:45:22;38.10;;;16.73;;
38053;SDS011;23859;50.672;7.164;2023-01-25T14:47:50;31.33;;;14.60;;
38053;SDS011;23859;50.672;7.164;2023-01-25T14:52:57;32.80;;;16.42;;
38053;SDS011;23859;50.672;7.164;2023-01-25T14:55:30;36.25;;;16.50;;
38053;SDS011;23859;50.672;7.164;2023-01-25T14:57:59;31.90;;;17.35;;
38053;SDS011;23859;50.672;7.164;2023-01-25T15:00:29;32.25;;;16.17;;
38053;SDS011;23859;50.672;7.164;2023-01-25T15:03:00;33.00;;;15.75;;
38053;SDS011;23859;50.672;7.164;2023-01-25T15:05:30;37.97;;;16.90;;
38053;SDS011;23859;50.672;7.164;2023-01-25T15:10:34;33.05;;;16.83;;
38053;SDS011;23859;50.672;7.164;2023-01-25T15:15:48;37.30;;;18.20;;
38053;SDS011;23859;50.672;7.164;2023-01-25T15:21:15;32.13;;;14.82;;
38053;SDS011;23859;50.672;7.164;2023-01-25T15:23:44;32.10;;;14.55;;
38053;SDS011;23859;50.672;7.164;2023-01-25T15:26:19;32.33;;;14.55;;
38053;SDS011;23859;50.672;7.164;2023-01-25T15:28:47;34.63;;;15.35;;
38053;SDS011;23859;50.672;7.164;2023-01-25T15:31:28;38.95;;;18.02;;
38053;SDS011;23859;50.672;7.164;2023-01-25T15:33:56;39.60;;;18.83;;
38053;SDS011;23859;50.672;7.164;2023-01-25T15:36:24;36.80;;;16.88;;
38053;SDS011;23859;50.672;7.164;2023-01-25T15:38:50;33.03;;;16.13;;
38053;SDS011;23859;50.672;7.164;2023-01-25T15:41:16;36.90;;;15.48;;
38053;SDS011;23859;50.672;7.164;2023-01-25T15:43:42;30.25;;;16.05;;
38053;SDS011;23859;50.672;7.164;2023-01-25T15:46:14;33.20;;;15.38;;
38053;SDS011;23859;50.672;7.164;2023-01-25T15:48:51;33.83;;;16.38;;
38053;SDS011;23859;50.672;7.164;2023-01-25T15:51:18;38.28;;;17.00;;
38053;SDS011;23859;50.672;7.164;2023-01-25T15:53:45;39.05;;;17.55;;
38053;SDS011;23859;50.672;7.164;2023-01-25T15:56:21;38.38;;;18.55;;
38053;SDS011;23859;50.672;7.164;2023-01-25T15:58:52;35.17;;;17.63;;
38053;SDS011;23859;50.672;7.164;2023-01-25T16:01:22;33.72;;;15.18;;
38053;SDS011;23859;50.672;7.164;2023-01-25T16:03:51;38.45;;;17.65;;
38053;SDS011;23859;50.672;7.164;2023-01-25T16:09:15;43.78;;;17.92;;
38053;SDS011;23859;50.672;7.164;2023-01-25T16:11:46;38.55;;;16.63;;
38053;SDS011;23859;50.672;7.164;2023-01-25T16:14:17;44.10;;;19.40;;
38053;SDS011;23859;50.672;7.164;2023-01-25T16:16:45;49.22;;;20.23;;
38053;SDS011;23859;50.672;7.164;2023-01-25T16:19:14;46.72;;;20.70;;
38053;SDS011;23859;50.672;7.164;2023-01-25T16:21:43;51.83;;;21.70;;
38053;SDS011;23859;50.672;7.164;2023-01-25T16:24:09;57.15;;;23.33;;
38053;SDS011;23859;50.672;7.164;2023-01-25T16:26:36;54.83;;;22.48;;
38053;SDS011;23859;50.672;7.164;2023-01-25T16:29:11;57.97;;;22.45;;
38053;SDS011;23859;50.672;7.164;2023-01-25T16:31:38;50.80;;;23.58;;
38053;SDS011;23859;50.672;7.164;2023-01-25T16:34:04;56.33;;;23.40;;